Time;durP1;ratioP1;P1;durP2;ratioP2;P2;SDS_P1;SDS_P2;PMS_P1;PMS_P2;Temp;Humidity;BMP_temperature;BMP_pressure;BME280_temperature;BME280_humidity;BME280_pressure;Samples;Min_cycle;Max_cycle;Signal;HPM_P1;HPM_P2
2022/06/16 00:00:29;;;;;;;18.27;7.97;;;;;;;15.65;63.25;101760.91;5112625;28;20027;-48
2022/06/16 00:02:55;;;;;;;16.60;7.47;;;;;;;15.64;63.27;101753.94;5113148;28;20482;-47
2022/06/16 00:05:24;;;;;;;15.52;8.27;;;;;;;15.62;63.38;101747.81;5113250;28;20023;-48
2022/06/16 00:07:50;;;;;;;13.05;8.18;;;;;;;15.60;63.62;101757.31;5112610;28;20073;-48
2022/06/16 00:10:16;;;;;;;19.35;8.73;;;;;;;15.57;63.72;101752.03;5113381;28;20019;-47
2022/06/16 00:12:42;;;;;;;16.75;8.65;;;;;;;15.56;63.20;101747.69;5113440;28;20043;-47
2022/06/16 00:15:10;;;;;;;12.02;8.23;;;;;;;15.52;63.30;101751.94;5112343;28;20378;-48
2022/06/16 00:17:35;;;;;;;14.10;8.38;;;;;;;15.50;63.12;101752.75;5113219;28;20027;-48
2022/06/16 00:20:04;;;;;;;15.70;8.15;;;;;;;15.47;63.90;101756.16;5113009;28;20037;-50
2022/06/16 00:22:30;;;;;;;16.08;8.35;;;;;;;15.42;63.94;101758.63;5112628;28;20110;-48
2022/06/16 00:24:55;;;;;;;18.45;8.48;;;;;;;15.35;64.62;101761.03;5113229;28;20489;-47
2022/06/16 00:27:20;;;;;;;17.80;8.77;;;;;;;15.30;64.57;101758.34;5112357;28;20521;-48
2022/06/16 00:29:45;;;;;;;13.30;8.70;;;;;;;15.25;64.20;101759.94;5113211;28;20023;-47
2022/06/16 00:32:11;;;;;;;19.85;8.50;;;;;;;15.15;64.30;101761.41;5112961;28;20028;-48
2022/06/16 00:34:36;;;;;;;20.38;9.30;;;;;;;15.08;64.45;101762.97;5116640;28;20019;-48
2022/06/16 00:37:02;;;;;;;15.80;9.70;;;;;;;15.05;64.64;101757.69;5117177;28;20118;-47
2022/06/16 00:39:27;;;;;;;20.77;9.52;;;;;;;14.98;64.82;101758.41;5116987;28;20028;-47
2022/06/16 00:41:53;;;;;;;18.35;8.80;;;;;;;14.95;64.54;101759.19;5116219;28;20020;-48
2022/06/16 00:44:24;;;;;;;24.10;9.65;;;;;;;14.90;65.05;101762.47;5117015;28;20035;-48
2022/06/16 00:46:49;;;;;;;16.30;8.63;;;;;;;14.86;64.66;101763.25;5116834;28;20023;-48
2022/06/16 00:49:15;;;;;;;16.45;10.07;;;;;;;14.79;65.10;101764.81;5115990;28;20073;-47
2022/06/16 00:51:47;;;;;;;18.83;8.80;;;;;;;14.71;65.83;101763.72;5116845;28;20070;-48
2022/06/16 00:54:19;;;;;;;16.40;8.63;;;;;;;14.66;65.80;101771.38;5116571;28;20491;-48
2022/06/16 00:56:44;;;;;;;22.40;9.77;;;;;;;14.63;65.92;101776.47;5115828;28;20047;-48
2022/06/16 00:59:10;;;;;;;19.70;9.10;;;;;;;14.59;65.90;101767.72;5116386;28;20039;-48
2022/06/16 01:01:39;;;;;;;18.25;9.63;;;;;;;14.53;66.31;101769.25;5116709;28;20020;-47
2022/06/16 01:06:49;;;;;;;19.63;9.50;;;;;;;14.39;66.80;101767.13;5116891;28;20034;-47
2022/06/16 01:09:25;;;;;;;20.67;9.48;;;;;;;14.33;66.58;101774.72;5116532;28;20027;-48
2022/06/16 01:15:26;;;;;;;24.35;10.10;;;;;;;14.16;67.13;101777.72;5116715;28;20043;-48
2022/06/16 01:18:10;;;;;;;24.02;9.35;;;;;;;14.13;67.04;101782.81;5115477;28;20148;-48
2022/06/16 01:21:09;;;;;;;20.88;10.13;;;;;;;14.09;66.92;101780.97;5116502;28;20023;-47
2022/06/16 01:23:58;;;;;;;16.08;9.95;;;;;;;14.06;66.68;101793.84;5115597;28;20066;-47
2022/06/16 01:26:52;;;;;;;20.38;10.55;;;;;;;13.99;67.03;101794.47;5116254;28;20024;-47
2022/06/16 01:29:45;;;;;;;21.75;11.57;;;;;;;13.92;67.94;101797.72;5116058;28;20482;-47
2022/06/16 01:32:21;;;;;;;22.48;11.10;;;;;;;13.81;68.73;101795.69;5114990;28;20467;-48
2022/06/16 01:35:04;;;;;;;18.05;10.30;;;;;;;13.74;69.06;101803.22;5116097;28;20028;-48
2022/06/16 01:38:12;;;;;;;18.85;11.07;;;;;;;13.71;67.92;101804.00;5115885;28;20030;-48
2022/06/16 01:40:51;;;;;;;16.77;10.10;;;;;;;13.59;69.58;101806.16;5105964;28;20055;-47
2022/06/16 01:43:24;;;;;;;17.55;10.85;;;;;;;13.50;69.48;101810.22;5115846;28;20111;-47
2022/06/16 01:45:59;;;;;;;19.80;10.23;;;;;;;13.44;69.26;101803.94;5114582;28;20027;-48
2022/06/16 01:48:28;;;;;;;25.27;11.18;;;;;;;13.35;69.93;101804.50;5115871;28;20035;-47
2022/06/16 01:50:58;;;;;;;20.02;10.30;;;;;;;13.29;70.23;101799.13;5115671;28;20375;-48
2022/06/16 01:53:49;;;;;;;16.30;10.27;;;;;;;13.23;70.03;101810.13;5114895;28;20085;-48
2022/06/16 01:56:24;;;;;;;19.85;10.80;;;;;;;13.17;70.29;101810.81;5115492;28;20143;-47
2022/06/16 01:58:58;;;;;;;18.70;10.52;;;;;;;13.10;70.47;101803.66;5114751;28;20023;-47
2022/06/16 02:01:28;;;;;;;21.65;11.38;;;;;;;12.98;71.47;101805.81;5115347;28;20421;-47
2022/06/16 02:04:02;;;;;;;22.42;11.90;;;;;;;12.91;72.16;101809.91;5115346;28;20383;-48
2022/06/16 02:06:34;;;;;;;20.00;11.70;;;;;;;12.85;71.72;101815.72;5114637;28;20027;-48
2022/06/16 02:09:12;;;;;;;21.25;11.30;;;;;;;12.80;72.04;101814.69;5115272;28;20466;-47
2022/06/16 02:11:40;;;;;;;23.88;11.45;;;;;;;12.81;72.67;101803.53;5115332;28;20023;-47
2022/06/16 02:14:08;;;;;;;;;;;;;;;12.87;69.75;101799.38;5114881;28;20039;-47
2022/06/16 02:16:36;;;;;;;24.48;11.90;;;;;;;12.73;72.75;101802.38;5115117;28;19959;-49
2022/06/16 02:19:06;;;;;;;25.30;12.00;;;;;;;12.68;73.35;101798.75;5115277;28;20115;-48
2022/06/16 02:21:35;;;;;;;20.70;11.60;;;;;;;12.54;74.16;101800.81;5114405;28;20090;-48
2022/06/16 02:24:03;;;;;;;22.73;12.80;;;;;;;12.39;74.68;101798.53;5115001;28;20035;-48
2022/06/16 02:26:28;;;;;;;27.58;14.27;;;;;;;12.29;74.84;101804.19;5115073;28;20102;-48
2022/06/16 02:28:56;;;;;;;21.70;12.43;;;;;;;12.15;75.77;101811.44;5114087;28;20107;-49
2022/06/16 02:31:35;;;;;;;28.00;14.07;;;;;;;12.08;75.18;101828.38;5114867;28;20028;-50
2022/06/16 02:34:16;;;;;;;28.33;13.90;;;;;;;12.02;75.45;101825.56;5114163;28;20020;-47
2022/06/16 02:37:08;;;;;;;21.27;13.00;;;;;;;11.98;75.21;101837.47;5114819;28;20475;-49
2022/06/16 02:39:52;;;;;;;21.10;12.88;;;;;;;11.95;75.37;101839.91;5114153;28;20081;-47
2022/06/16 02:42:28;;;;;;;25.67;13.45;;;;;;;11.90;75.94;101845.72;5114102;28;20028;-47
2022/06/16 02:45:22;;;;;;;21.45;14.15;;;;;;;11.89;75.07;101843.94;5114532;28;20359;-47
2022/06/16 02:47:57;;;;;;;27.10;13.50;;;;;;;11.88;75.70;101844.75;5114669;28;20024;-47
2022/06/16 02:50:59;;;;;;;24.85;14.75;;;;;;;11.89;74.59;101849.09;5114702;28;20024;-47
2022/06/16 02:53:51;;;;;;;23.73;13.75;;;;;;;11.85;75.43;101858.41;5111289;28;20040;-48
2022/06/16 02:56:28;;;;;;;31.10;14.80;;;;;;;11.82;75.51;101859.19;5112491;28;20031;-47
2022/06/16 02:58:57;;;;;;;25.50;14.03;;;;;;;11.77;76.11;101860.69;5114316;28;20459;-47
2022/06/16 03:01:23;;;;;;;28.90;13.90;;;;;;;11.70;76.46;101862.16;5114402;28;20110;-47
2022/06/16 03:04:04;;;;;;;23.65;13.43;;;;;;;11.68;75.82;101861.22;5113441;28;20520;-47
2022/06/16 03:06:30;;;;;;;25.73;13.60;;;;;;;11.63;76.72;101862.72;5114609;28;20024;-47
2022/06/16 03:08:57;;;;;;;28.33;13.90;;;;;;;11.59;76.98;101859.94;5113703;28;20102;-47
2022/06/16 03:11:22;;;;;;;30.42;14.43;;;;;;;11.57;76.86;101862.47;5114093;28;20036;-48
2022/06/16 03:13:48;;;;;;;29.65;15.70;;;;;;;11.52;77.30;101849.34;5114141;28;20517;-47
2022/06/16 03:16:13;;;;;;;25.27;14.80;;;;;;;11.49;77.28;101848.34;5113056;28;20093;-48
2022/06/16 03:18:38;;;;;;;30.98;15.85;;;;;;;11.48;77.50;101862.97;5114030;28;20023;-47
2022/06/16 03:21:04;;;;;;;33.35;16.00;;;;;;;11.44;77.37;101866.22;5113729;28;20062;-47
2022/06/16 03:23:30;;;;;;;26.50;14.30;;;;;;;11.40;77.69;101861.75;5113056;28;20034;-47
2022/06/16 03:25:55;;;;;;;32.92;15.68;;;;;;;11.40;78.19;101863.44;5113883;28;20098;-47
2022/06/16 03:28:21;;;;;;;25.00;14.88;;;;;;;11.34;78.27;101864.06;5113917;28;20106;-48
2022/06/16 03:30:46;;;;;;;24.85;14.57;;;;;;;11.29;78.60;101856.13;5113163;28;20360;-47
2022/06/16 03:33:12;;;;;;;25.27;14.35;;;;;;;11.26;78.83;101850.84;5113549;28;20023;-47
2022/06/16 03:35:39;;;;;;;28.83;14.50;;;;;;;11.22;79.20;101854.13;5113773;28;20031;-48
2022/06/16 03:38:09;;;;;;;22.40;14.45;;;;;;;11.19;78.95;101859.13;5112624;28;20114;-47
2022/06/16 03:40:34;;;;;;;27.13;15.15;;;;;;;11.13;79.72;101870.06;5113827;28;20026;-47
2022/06/16 03:43:00;;;;;;;25.85;14.93;;;;;;;11.10;79.50;101875.09;5113687;28;20019;-49
2022/06/16 03:45:25;;;;;;;25.35;16.23;;;;;;;11.09;80.03;101885.34;5112789;28;20046;-48
2022/06/16 03:47:50;;;;;;;27.92;15.85;;;;;;;11.09;80.17;101890.50;5113544;28;20019;-47
2022/06/16 03:50:18;;;;;;;31.15;16.35;;;;;;;11.09;80.25;101899.13;5113534;28;20073;-47
2022/06/16 03:52:43;;;;;;;27.02;15.98;;;;;;;11.11;80.24;101901.78;5112980;28;20069;-49
2022/06/16 03:55:09;;;;;;;23.13;15.60;;;;;;;11.14;80.05;101904.50;5113176;28;20094;-47
2022/06/16 03:57:35;;;;;;;27.42;15.75;;;;;;;11.17;80.15;101902.06;5113195;28;20043;-48
2022/06/16 04:00:00;;;;;;;29.80;15.48;;;;;;;11.19;79.99;101901.31;5112531;28;20099;-47
2022/06/16 04:02:25;;;;;;;28.13;15.18;;;;;;;11.25;79.52;101908.44;5113312;28;20036;-48
2022/06/16 04:04:51;;;;;;;29.58;15.95;;;;;;;11.29;79.47;101902.56;5113115;28;20360;-47
2022/06/16 04:07:16;;;;;;;28.10;15.57;;;;;;;11.35;79.44;101907.16;5112360;28;20043;-47
2022/06/16 04:09:41;;;;;;;27.35;15.70;;;;;;;11.39;79.28;101909.03;5113509;28;20068;-48
2022/06/16 04:12:07;;;;;;;33.22;16.30;;;;;;;11.41;79.19;101907.38;5113175;28;20028;-48
2022/06/16 04:14:33;;;;;;;26.85;15.55;;;;;;;11.46;79.13;101918.78;5112461;28;20382;-48
2022/06/16 04:16:58;;;;;;;28.42;15.30;;;;;;;11.48;78.84;101922.34;5112963;28;20057;-47
2022/06/16 04:19:24;;;;;;;27.38;15.15;;;;;;;11.51;78.79;101919.00;5112368;28;20502;-47
2022/06/16 04:21:52;;;;;;;26.17;15.98;;;;;;;11.53;79.34;101912.22;5112998;28;20111;-48
2022/06/16 04:24:19;;;;;;;27.33;15.70;;;;;;;11.52;79.27;101908.72;5113312;28;20047;-47
2022/06/16 04:26:45;;;;;;;24.75;15.05;;;;;;;11.55;78.64;101912.28;5112527;28;20020;-46
2022/06/16 04:29:11;;;;;;;29.45;14.82;;;;;;;11.56;78.94;101914.06;5112919;28;20068;-47
2022/06/16 04:31:37;;;;;;;30.77;15.60;;;;;;;11.58;79.05;101920.13;5113178;28;20114;-47
2022/06/16 04:34:03;;;;;;;28.33;15.75;;;;;;;11.60;78.80;101929.72;5112045;28;20516;-48
2022/06/16 04:36:29;;;;;;;30.88;16.70;;;;;;;11.63;78.73;101923.81;5113082;28;20020;-48
2022/06/16 04:38:55;;;;;;;30.77;16.02;;;;;;;11.70;78.29;101938.75;5113146;28;20020;-48
2022/06/16 04:41:22;;;;;;;28.92;16.83;;;;;;;11.69;79.19;101935.25;5112284;28;20024;-48
2022/06/16 04:43:48;;;;;;;27.08;16.90;;;;;;;11.76;78.51;101938.13;5113059;28;20424;-47
2022/06/16 04:46:14;;;;;;;31.52;16.52;;;;;;;11.80;78.32;101943.50;5112727;28;20530;-47
2022/06/16 04:48:40;;;;;;;33.95;16.90;;;;;;;11.84;78.71;101940.22;5112048;28;20023;-47
2022/06/16 04:51:05;;;;;;;30.67;17.27;;;;;;;11.89;78.76;101944.69;5113011;28;20467;-47
2022/06/16 04:53:31;;;;;;;28.55;17.08;;;;;;;11.93;78.75;101949.16;5112968;28;20489;-47
2022/06/16 04:55:59;;;;;;;36.15;16.95;;;;;;;11.98;78.20;101953.75;5111778;28;20104;-47
2022/06/16 04:58:26;;;;;;;31.35;16.77;;;;;;;12.06;77.32;101955.75;5112902;28;20024;-47
2022/06/16 05:00:52;;;;;;;28.30;17.63;;;;;;;12.15;76.99;101956.16;5112636;28;20024;-47
2022/06/16 05:03:20;;;;;;;28.10;17.10;;;;;;;12.22;76.95;101959.84;5111811;28;20031;-47
2022/06/16 05:05:46;;;;;;;28.15;17.20;;;;;;;12.28;76.60;101965.28;5112750;28;20064;-47
2022/06/16 05:08:13;;;;;;;29.42;16.83;;;;;;;12.36;75.63;101958.72;5112629;28;20076;-47
2022/06/16 05:10:38;;;;;;;32.10;16.73;;;;;;;12.42;76.61;101966.72;5112060;28;20027;-47
2022/06/16 05:13:03;;;;;;;27.92;16.05;;;;;;;12.50;75.64;101970.47;5112654;28;20085;-47
2022/06/16 05:15:29;;;;;;;33.95;15.85;;;;;;;12.56;74.84;101974.13;5112673;28;20032;-48
2022/06/16 05:17:54;;;;;;;31.25;16.20;;;;;;;12.62;75.22;101979.53;5111580;28;20080;-48
2022/06/16 05:20:19;;;;;;;30.42;16.38;;;;;;;12.70;74.39;101985.88;5114151;28;20097;-47
2022/06/16 05:22:45;;;;;;;27.38;15.63;;;;;;;12.75;74.05;101997.31;5115538;28;20024;-47
2022/06/16 05:25:10;;;;;;;29.80;16.10;;;;;;;12.81;73.58;101991.50;5116207;28;20028;-47
2022/06/16 05:27:36;;;;;;;28.27;15.52;;;;;;;12.88;74.29;101992.63;5116183;28;20060;-47
2022/06/16 05:30:02;;;;;;;34.25;15.98;;;;;;;12.95;72.82;101997.19;5115354;28;20028;-48
2022/06/16 05:32:27;;;;;;;30.75;15.13;;;;;;;13.01;71.98;101994.84;5115950;28;20043;-50
2022/06/16 05:34:53;;;;;;;32.25;15.23;;;;;;;13.07;71.42;102000.25;5116093;28;20043;-48
2022/06/16 05:37:18;;;;;;;37.55;16.13;;;;;;;13.14;71.87;101999.66;5115204;28;20171;-47
2022/06/16 05:39:44;;;;;;;34.55;16.10;;;;;;;13.20;70.78;102008.50;5116066;28;20048;-48
2022/06/16 05:42:09;;;;;;;24.15;14.80;;;;;;;13.25;71.42;102007.81;5115754;28;20034;-47
2022/06/16 05:44:36;;;;;;;33.30;16.23;;;;;;;13.31;71.66;102009.75;5115152;28;20032;-47
2022/06/16 05:47:03;;;;;;;33.92;15.63;;;;;;;13.37;72.25;102007.41;5115673;28;20020;-47
2022/06/16 05:49:28;;;;;;;34.75;16.88;;;;;;;13.45;73.98;102015.47;5115547;28;20024;-48
2022/06/16 05:51:53;;;;;;;31.50;14.82;;;;;;;13.51;71.64;102020.88;5114962;28;20348;-47
2022/06/16 05:54:19;;;;;;;29.33;15.40;;;;;;;13.57;69.70;102012.44;5115738;28;20024;-49
2022/06/16 05:56:44;;;;;;;28.95;15.07;;;;;;;13.63;70.20;102023.94;5115494;28;20046;-48
2022/06/16 05:59:09;;;;;;;26.63;14.98;;;;;;;13.71;70.01;102019.03;5114462;28;20020;-47
2022/06/16 06:01:35;;;;;;;34.13;15.07;;;;;;;13.77;73.03;102016.63;5115513;28;20023;-47
2022/06/16 06:04:00;;;;;;;26.67;13.23;;;;;;;13.89;67.39;102026.56;5115585;28;20026;-48
2022/06/16 06:06:25;;;;;;;29.38;12.60;;;;;;;13.96;67.36;102018.16;5114478;28;20934;-47
2022/06/16 06:17:18;;;;;;;22.33;11.10;;;;;;;14.27;67.73;102031.28;5115356;28;20088;-48
2022/06/16 06:19:43;;;;;;;28.80;10.60;;;;;;;14.35;65.78;102028.94;5114375;28;20394;-47
2022/06/16 06:22:13;;;;;;;20.50;10.10;;;;;;;14.42;65.73;102023.09;5114975;28;20031;-48
2022/06/16 06:24:57;;;;;;;24.50;9.98;;;;;;;14.52;64.67;102034.69;5115037;28;20031;-48
2022/06/16 06:27:34;;;;;;;19.52;10.35;;;;;;;14.61;65.21;102024.59;5114383;28;20024;-48
2022/06/16 06:30:00;;;;;;;;;;;;;;;14.67;65.59;102024.81;5115366;28;20031;-47
2022/06/16 06:32:27;;;;;;;22.77;10.07;;;;;;;14.78;62.96;102022.56;5114830;28;20009;-48
2022/06/16 06:34:53;;;;;;;15.73;8.13;;;;;;;14.90;62.47;102032.44;5113849;28;20023;-47
2022/06/16 06:37:21;;;;;;;21.85;10.23;;;;;;;14.98;64.06;102043.94;5114942;28;20042;-48
2022/06/16 06:39:48;;;;;;;19.10;8.95;;;;;;;15.07;60.89;102041.63;5114850;28;20066;-47
2022/06/16 06:42:13;;;;;;;18.63;8.25;;;;;;;15.19;62.92;102042.84;5113715;28;20048;-48
2022/06/16 06:44:39;;;;;;;16.60;8.02;;;;;;;15.26;59.73;102043.06;5114805;28;20027;-48
2022/06/16 06:47:05;;;;;;;19.23;8.35;;;;;;;15.33;60.12;102044.13;5113768;28;20015;-47
2022/06/16 06:49:30;;;;;;;22.38;9.15;;;;;;;15.38;59.85;102042.53;5114415;28;20035;-48
2022/06/16 06:51:56;;;;;;;16.95;7.65;;;;;;;15.45;59.22;102044.47;5114659;28;20011;-49
2022/06/16 06:54:22;;;;;;;18.15;7.72;;;;;;;15.51;58.38;102051.56;5113799;28;20642;-48
2022/06/16 06:56:49;;;;;;;16.02;6.90;;;;;;;15.57;56.78;102050.84;5114298;28;20039;-48
2022/06/16 06:59:18;;;;;;;19.25;6.32;;;;;;;15.61;58.27;102052.72;5114183;28;20459;-48
2022/06/16 07:01:45;;;;;;;20.05;6.38;;;;;;;15.78;56.44;102059.25;5113582;28;20023;-49
2022/06/16 07:04:10;;;;;;;14.80;7.07;;;;;;;15.83;57.11;102062.00;5114149;28;20023;-47
2022/06/16 07:06:37;;;;;;;17.10;6.28;;;;;;;15.92;59.57;102058.75;5114457;28;20417;-47
2022/06/16 07:09:02;;;;;;;13.93;6.75;;;;;;;15.96;56.77;102053.69;5113530;28;20024;-48
2022/06/16 07:11:27;;;;;;;17.60;6.72;;;;;;;16.04;57.95;102061.69;5114189;28;20448;-48
2022/06/16 07:13:53;;;;;;;14.50;5.78;;;;;;;16.12;57.07;102060.16;5114072;28;20107;-48
2022/06/16 07:16:19;;;;;;;14.25;5.63;;;;;;;16.20;56.33;102062.09;5113205;28;20061;-48
2022/06/16 07:18:45;;;;;;;11.77;5.50;;;;;;;16.29;54.28;102070.13;5113977;28;20023;-47
2022/06/16 07:21:11;;;;;;;12.05;5.20;;;;;;;16.38;56.61;102075.56;5113978;28;20027;-47
2022/06/16 07:23:36;;;;;;;14.25;5.30;;;;;;;16.45;53.66;102081.81;5113452;28;20047;-48
2022/06/16 07:26:02;;;;;;;11.63;4.63;;;;;;;16.54;57.64;102084.66;5113880;28;20054;-47
2022/06/16 07:28:28;;;;;;;13.85;5.07;;;;;;;16.60;55.54;102089.13;5113898;28;20031;-47
2022/06/16 07:30:53;;;;;;;14.35;4.78;;;;;;;16.68;55.58;102087.59;5112852;28;20032;-47
2022/06/16 07:33:18;;;;;;;11.50;5.55;;;;;;;16.81;58.84;102093.97;5113677;28;20051;-48
2022/06/16 07:35:44;;;;;;;15.15;6.43;;;;;;;16.90;56.61;102093.28;5114013;28;20024;-48
2022/06/16 07:38:13;;;;;;;14.13;6.90;;;;;;;16.92;54.27;102102.06;5112746;28;20027;-47
2022/06/16 07:40:39;;;;;;;13.40;6.13;;;;;;;16.99;55.17;102109.19;5114000;28;20019;-48
2022/06/16 07:43:05;;;;;;;17.88;6.28;;;;;;;17.07;55.89;102112.84;5113055;28;20030;-48
2022/06/16 07:45:31;;;;;;;12.85;5.78;;;;;;;17.16;55.28;102113.88;5112685;28;20331;-48
2022/06/16 07:48:00;;;;;;;11.85;6.10;;;;;;;17.24;55.17;102126.25;5113358;28;20110;-49
2022/06/16 07:50:26;;;;;;;12.43;6.07;;;;;;;17.30;53.67;102130.72;5112859;28;20023;-48
2022/06/16 07:52:51;;;;;;;17.88;6.57;;;;;;;17.34;52.17;102123.84;5113555;28;20053;-48
2022/06/16 07:55:18;;;;;;;18.55;6.80;;;;;;;17.34;51.90;102116.91;5113450;28;20024;-48
2022/06/16 07:57:46;;;;;;;13.55;6.22;;;;;;;17.40;52.20;102122.28;5112564;28;20087;-48
2022/06/16 08:00:15;;;;;;;15.20;6.05;;;;;;;17.49;54.17;102129.38;5113264;28;20024;-49
2022/06/16 08:02:40;;;;;;;12.07;5.95;;;;;;;17.55;53.09;102129.53;5113260;28;20078;-48
2022/06/16 08:05:07;;;;;;;15.85;6.05;;;;;;;17.64;55.03;102128.84;5112457;28;20467;-48
2022/06/16 08:07:32;;;;;;;13.15;5.78;;;;;;;17.74;54.10;102138.63;5113283;28;20024;-47
2022/06/16 08:09:58;;;;;;;16.95;6.50;;;;;;;17.82;53.14;102137.88;5113294;28;20026;-47
2022/06/16 08:12:24;;;;;;;17.48;5.00;;;;;;;17.99;51.34;102130.44;5112512;28;20022;-47
2022/06/16 08:14:50;;;;;;;12.45;4.88;;;;;;;18.06;52.22;102137.50;5113063;28;20424;-48
2022/06/16 08:17:24;;;;;;;11.55;5.28;;;;;;;18.13;50.31;102147.22;5113109;28;20114;-48
2022/06/16 08:19:50;;;;;;;11.55;5.30;;;;;;;18.19;50.81;102142.13;5112558;28;20083;-48
2022/06/16 08:22:16;;;;;;;12.52;4.85;;;;;;;18.26;50.24;102146.59;5113352;28;20024;-49
2022/06/16 08:24:41;;;;;;;12.18;4.85;;;;;;;18.31;49.69;102137.97;5113312;28;20027;-48
2022/06/16 08:27:08;;;;;;;10.90;5.57;;;;;;;18.32;47.35;102148.47;5112140;28;20463;-48
2022/06/16 08:29:35;;;;;;;12.23;4.68;;;;;;;18.42;49.79;102147.78;5113165;28;20024;-49
2022/06/16 08:32:00;;;;;;;11.20;5.10;;;;;;;18.53;51.94;102147.09;5113248;28;20030;-48
2022/06/16 08:34:25;;;;;;;17.38;6.47;;;;;;;18.61;49.27;102139.38;5112336;28;20027;-48
2022/06/16 08:36:51;;;;;;;14.15;6.22;;;;;;;18.62;48.01;102131.56;5112778;28;20371;-48
2022/06/16 08:39:17;;;;;;;13.32;5.68;;;;;;;18.74;50.48;102136.97;5113019;28;20034;-46
2022/06/16 08:41:49;;;;;;;15.05;6.45;;;;;;;18.83;48.05;102124.94;5112326;28;20390;-46
2022/06/16 08:44:37;;;;;;;13.45;5.60;;;;;;;18.96;51.79;102124.28;5112877;28;20110;-46
2022/06/16 08:47:09;;;;;;;11.75;5.57;;;;;;;19.07;49.51;102117.50;5112004;28;20368;-45
2022/06/16 08:49:42;;;;;;;13.00;5.60;;;;;;;19.21;49.27;102119.44;5113117;28;20031;-45
2022/06/16 08:52:28;;;;;;;14.35;5.30;;;;;;;19.32;49.20;102125.69;5112789;28;20027;-46
2022/06/16 08:55:10;;;;;;;17.33;5.80;;;;;;;19.46;49.59;102127.59;5113067;28;20098;-45
2022/06/16 08:57:42;;;;;;;13.57;6.95;;;;;;;19.51;48.84;102141.59;5116526;28;20309;-46
2022/06/16 09:00:15;;;;;;;15.40;6.93;;;;;;;19.61;47.86;102151.34;5116642;28;20051;-47
2022/06/16 09:02:59;;;;;;;20.58;7.45;;;;;;;19.69;47.48;102152.31;5115876;28;20364;-46
2022/06/16 09:05:40;;;;;;;12.20;6.50;;;;;;;19.73;46.05;102156.72;5116811;28;20028;-45
2022/06/16 09:08:36;;;;;;;16.55;7.18;;;;;;;19.81;48.49;102164.66;5115763;28;20024;-46
2022/06/16 09:11:17;;;;;;;15.10;6.72;;;;;;;19.98;47.93;102159.66;5116530;28;20106;-46
2022/06/16 09:13:57;;;;;;;12.82;6.53;;;;;;;20.09;46.21;102172.00;5116459;28;20440;-46
2022/06/16 09:16:33;;;;;;;13.10;5.85;;;;;;;20.22;46.65;102168.66;5115667;28;20031;-46
2022/06/16 09:19:13;;;;;;;17.02;6.90;;;;;;;20.31;46.42;102168.75;5116364;28;20054;-45
2022/06/16 09:21:58;;;;;;;13.32;6.97;;;;;;;20.32;45.13;102167.91;5116317;28;20379;-46
2022/06/16 09:24:42;;;;;;;13.57;6.53;;;;;;;20.50;47.95;102171.53;5116365;28;20031;-46
2022/06/16 09:27:14;;;;;;;14.40;6.80;;;;;;;20.60;46.04;102178.63;5115995;28;20133;-46
2022/06/16 09:30:09;;;;;;;20.60;6.82;;;;;;;20.79;46.32;102181.47;5115549;28;20027;-46
2022/06/16 09:32:40;;;;;;;16.95;6.57;;;;;;;20.92;44.04;102178.06;5116257;28;20030;-49
2022/06/16 09:35:12;;;;;;;12.85;6.57;;;;;;;21.02;43.00;102182.50;5116023;28;20594;-46
2022/06/16 09:37:46;;;;;;;16.77;6.43;;;;;;;21.17;43.10;102175.63;5115225;28;20475;-47
2022/06/16 09:40:20;;;;;;;16.60;8.15;;;;;;;21.36;43.63;102180.09;5115701;28;20375;-46
2022/06/16 09:43:31;;;;;;;18.98;8.18;;;;;;;21.60;44.54;102173.28;5116151;28;20050;-46
2022/06/16 09:46:02;;;;;;;13.02;6.10;;;;;;;21.87;43.73;102167.28;5115871;28;20020;-47
2022/06/16 09:48:51;;;;;;;15.75;6.70;;;;;;;22.06;44.21;102176.94;5115805;28;20027;-46
2022/06/16 09:51:23;;;;;;;14.43;6.75;;;;;;;22.42;41.02;102176.19;5115297;28;20099;-46
2022/06/16 09:54:16;;;;;;;14.30;7.18;;;;;;;22.55;40.99;102182.31;5115731;28;20466;-47
2022/06/16 09:57:00;;;;;;;15.98;7.13;;;;;;;22.44;40.69;102184.06;5115408;28;20491;-46
2022/06/16 09:59:32;;;;;;;15.00;5.75;;;;;;;22.72;42.89;102184.09;5115709;28;20054;-47
2022/06/16 10:02:03;;;;;;;14.60;5.75;;;;;;;23.17;40.70;102172.69;5115510;28;20115;-47
2022/06/16 10:04:28;;;;;;;14.57;6.68;;;;;;;23.38;38.05;102170.00;5114852;28;20034;-50
2022/06/16 10:07:23;;;;;;;14.02;5.75;;;;;;;24.05;42.37;102178.53;5114899;28;20019;-49
2022/06/16 10:10:17;;;;;;;15.95;5.60;;;;;;;24.36;38.10;102181.00;5115554;28;20144;-50
2022/06/16 10:13:01;;;;;;;16.00;6.13;;;;;;;25.02;38.19;102180.47;5114629;28;20046;-49
2022/06/16 10:15:43;;;;;;;12.70;6.10;;;;;;;25.42;38.04;102173.94;5115055;28;20493;-51
2022/06/16 10:18:10;;;;;;;15.20;5.68;;;;;;;25.85;35.60;102168.13;5114073;28;20122;-51
2022/06/16 10:20:37;;;;;;;17.27;6.40;;;;;;;26.51;36.20;102176.88;5115372;28;20023;-50
2022/06/16 10:23:15;;;;;;;13.07;5.20;;;;;;;27.19;36.27;102175.72;5115132;28;20031;-48
2022/06/16 10:25:46;;;;;;;15.57;4.82;;;;;;;28.29;32.06;102168.13;5114380;28;20031;-49
2022/06/16 10:28:28;;;;;;;18.25;5.32;;;;;;;29.19;30.69;102169.41;5114734;28;20020;-47
2022/06/16 10:30:55;;;;;;;13.35;5.45;;;;;;;29.74;30.40;102174.03;5115049;28;20039;-50
2022/06/16 10:33:22;;;;;;;;;;;;;;;30.34;30.67;102176.63;5114417;28;20478;-51
2022/06/16 10:36:02;;;;;;;14.38;5.07;;;;;;;30.60;28.65;102189.09;5114992;28;19912;-51
2022/06/16 10:38:35;;;;;;;14.73;4.82;;;;;;;30.67;27.46;102189.75;5114828;28;20023;-52
2022/06/16 10:41:03;;;;;;;15.00;5.55;;;;;;;31.12;28.14;102190.91;5113818;28;20024;-52
2022/06/16 10:43:36;;;;;;;14.77;5.25;;;;;;;31.14;25.18;102197.91;5114743;28;20031;-52
2022/06/16 10:46:14;;;;;;;19.52;5.68;;;;;;;31.62;25.64;102192.63;5114720;28;20028;-52
2022/06/16 10:48:47;;;;;;;11.07;5.13;;;;;;;32.04;25.77;102191.88;5114787;28;20027;-51
2022/06/16 10:51:19;;;;;;;19.85;5.70;;;;;;;32.32;24.99;102194.34;5114187;28;20150;-53
2022/06/16 10:54:06;;;;;;;11.30;4.55;;;;;;;32.26;23.22;102191.06;5113852;28;20481;-52
2022/06/16 10:56:32;;;;;;;12.60;5.57;;;;;;;31.97;23.61;102193.06;5099931;28;20047;-52
2022/06/16 10:59:01;;;;;;;11.63;4.47;;;;;;;31.98;24.25;102194.78;5114249;28;20029;-53
2022/06/16 11:01:35;;;;;;;17.40;5.03;;;;;;;32.57;25.65;102187.13;5113433;28;20031;-54
2022/06/16 11:04:08;;;;;;;11.00;4.43;;;;;;;32.77;27.06;102189.84;5114458;28;20032;-52
2022/06/16 11:06:34;;;;;;;13.60;4.47;;;;;;;33.19;23.12;102179.13;5114554;28;20031;-52
2022/06/16 11:09:03;;;;;;;9.80;3.78;;;;;;;33.36;24.81;102183.72;5113389;28;20062;-53
2022/06/16 11:11:52;;;;;;;12.63;4.53;;;;;;;33.47;23.03;102189.44;5114090;28;20063;-53
2022/06/16 11:14:22;;;;;;;9.20;4.82;;;;;;;34.14;22.08;102190.72;5113208;28;20505;-54
2022/06/16 11:16:54;;;;;;;9.93;5.05;;;;;;;34.26;22.02;102185.72;5114054;28;20045;-53
2022/06/16 11:19:59;;;;;;;9.52;4.28;;;;;;;34.82;22.79;102190.97;5113658;28;20027;-54
2022/06/16 11:22:31;;;;;;;15.03;5.10;;;;;;;34.58;22.76;102178.75;5100836;28;20167;-54
2022/06/16 11:25:17;;;;;;;12.85;4.68;;;;;;;34.84;24.13;102181.03;5114023;28;20035;-54
2022/06/16 11:27:48;;;;;;;13.10;4.53;;;;;;;35.05;22.21;102182.59;5113891;28;20538;-54
2022/06/16 11:30:31;;;;;;;11.60;4.78;;;;;;;35.41;22.68;102178.03;5112950;28;20023;-54
2022/06/16 11:32:56;;;;;;;8.70;3.95;;;;;;;35.46;20.21;102169.72;5113451;28;20371;-54
2022/06/16 11:35:31;;;;;;;10.70;4.20;;;;;;;35.43;21.09;102179.69;5113243;28;20454;-54
2022/06/16 11:38:26;;;;;;;11.13;4.60;;;;;;;35.87;20.24;102171.94;5113584;28;20050;-54
2022/06/16 11:41:00;;;;;;;12.00;4.00;;;;;;;35.89;21.17;102173.56;5071719;28;20122;-54
2022/06/16 11:43:56;;;;;;;12.82;4.63;;;;;;;35.96;21.10;102171.44;5112795;28;20379;-54
2022/06/16 11:46:32;;;;;;;8.77;4.45;;;;;;;35.80;20.40;102165.16;5113709;28;20084;-54